sensor_id;sensor_type;location;lat;lon;timestamp;temperature;humidity
2605;DHT22;1312;50.298;8.520;2024-01-16T00:01:33;-1.10;99.90
2605;DHT22;1312;50.298;8.520;2024-01-16T00:04:01;-1.10;99.90
2605;DHT22;1312;50.298;8.520;2024-01-16T00:06:29;-1.10;99.90
2605;DHT22;1312;50.298;8.520;2024-01-16T00:08:57;-1.10;99.90
2605;DHT22;1312;50.298;8.520;2024-01-16T00:11:25;-1.20;1.00
2605;DHT22;1312;50.298;8.520;2024-01-16T00:13:52;-1.20;1.00
2605;DHT22;1312;50.298;8.520;2024-01-16T00:16:22;-1.20;1.00
2605;DHT22;1312;50.298;8.520;2024-01-16T00:18:50;-1.10;1.00
2605;DHT22;1312;50.298;8.520;2024-01-16T00:21:18;-1.10;1.00
2605;DHT22;1312;50.298;8.520;2024-01-16T00:23:46;-1.20;1.00
2605;DHT22;1312;50.298;8.520;2024-01-16T00:26:20;-1.20;1.00
2605;DHT22;1312;50.298;8.520;2024-01-16T00:28:48;-1.10;40.00
2605;DHT22;1312;50.298;8.520;2024-01-16T00:31:16;-1.10;90.40
2605;DHT22;1312;50.298;8.520;2024-01-16T00:33:45;-1.10;99.90
2605;DHT22;1312;50.298;8.520;2024-01-16T00:36:14;-1.00;99.90
2605;DHT22;1312;50.298;8.520;2024-01-16T00:38:41;-1.10;99.90
2605;DHT22;1312;50.298;8.520;2024-01-16T00:41:10;-1.10;23.60
2605;DHT22;1312;50.298;8.520;2024-01-16T00:43:37;-1.10;13.20
2605;DHT22;1312;50.298;8.520;2024-01-16T00:46:05;-1.10;1.00
2605;DHT22;1312;50.298;8.520;2024-01-16T00:48:34;-1.00;99.90
2605;DHT22;1312;50.298;8.520;2024-01-16T00:51:04;-1.00;99.90
2605;DHT22;1312;50.298;8.520;2024-01-16T00:53:31;-1.00;1.00
2605;DHT22;1312;50.298;8.520;2024-01-16T00:55:59;-1.00;3.40
2605;DHT22;1312;50.298;8.520;2024-01-16T00:58:27;-1.00;1.00
2605;DHT22;1312;50.298;8.520;2024-01-16T01:00:55;-1.10;1.00
2605;DHT22;1312;50.298;8.520;2024-01-16T01:03:23;-1.10;1.00
2605;DHT22;1312;50.298;8.520;2024-01-16T01:05:52;-1.10;1.00
2605;DHT22;1312;50.298;8.520;2024-01-16T01:08:22;-1.00;1.00
2605;DHT22;1312;50.298;8.520;2024-01-16T01:10:50;-1.00;1.00
2605;DHT22;1312;50.298;8.520;2024-01-16T01:13:18;-1.00;1.00
2605;DHT22;1312;50.298;8.520;2024-01-16T01:15:46;-1.00;1.00
2605;DHT22;1312;50.298;8.520;2024-01-16T01:18:14;-1.00;99.90
2605;DHT22;1312;50.298;8.520;2024-01-16T01:20:42;-1.00;99.90
2605;DHT22;1312;50.298;8.520;2024-01-16T01:23:10;-1.00;1.00
2605;DHT22;1312;50.298;8.520;2024-01-16T01:25:40;-1.00;1.00
2605;DHT22;1312;50.298;8.520;2024-01-16T01:28:08;-1.00;1.00
2605;DHT22;1312;50.298;8.520;2024-01-16T01:30:36;-1.00;1.00
2605;DHT22;1312;50.298;8.520;2024-01-16T01:33:05;-1.00;1.00
2605;DHT22;1312;50.298;8.520;2024-01-16T01:35:33;-1.00;1.00
2605;DHT22;1312;50.298;8.520;2024-01-16T01:38:01;-1.00;1.00
2605;DHT22;1312;50.298;8.520;2024-01-16T01:40:29;-1.00;1.00
2605;DHT22;1312;50.298;8.520;2024-01-16T01:42:58;-1.00;1.00
2605;DHT22;1312;50.298;8.520;2024-01-16T01:45:44;-1.00;1.00
2605;DHT22;1312;50.298;8.520;2024-01-16T01:48:11;-1.10;1.00
2605;DHT22;1312;50.298;8.520;2024-01-16T01:50:40;-1.10;1.00
2605;DHT22;1312;50.298;8.520;2024-01-16T01:53:08;-1.00;1.00
2605;DHT22;1312;50.298;8.520;2024-01-16T01:55:36;-1.00;1.00
2605;DHT22;1312;50.298;8.520;2024-01-16T01:58:05;-1.00;1.00
2605;DHT22;1312;50.298;8.520;2024-01-16T02:00:33;-1.00;1.00
2605;DHT22;1312;50.298;8.520;2024-01-16T02:03:01;-1.10;1.00
2605;DHT22;1312;50.298;8.520;2024-01-16T02:05:30;-1.00;1.00
2605;DHT22;1312;50.298;8.520;2024-01-16T02:07:59;-1.00;1.00
2605;DHT22;1312;50.298;8.520;2024-01-16T02:10:28;-1.00;1.00
2605;DHT22;1312;50.298;8.520;2024-01-16T02:12:55;-1.00;1.00
2605;DHT22;1312;50.298;8.520;2024-01-16T02:15:25;-1.00;1.00
2605;DHT22;1312;50.298;8.520;2024-01-16T02:17:53;-1.00;1.00
2605;DHT22;1312;50.298;8.520;2024-01-16T02:20:21;-1.00;1.00
2605;DHT22;1312;50.298;8.520;2024-01-16T02:22:50;-1.00;1.00
2605;DHT22;1312;50.298;8.520;2024-01-16T02:25:21;-1.00;1.00
2605;DHT22;1312;50.298;8.520;2024-01-16T02:27:50;-1.00;1.00
2605;DHT22;1312;50.298;8.520;2024-01-16T02:30:18;-0.90;1.00
2605;DHT22;1312;50.298;8.520;2024-01-16T02:32:46;-0.90;1.00
2605;DHT22;1312;50.298;8.520;2024-01-16T02:35:14;-1.00;1.00
2605;DHT22;1312;50.298;8.520;2024-01-16T02:37:44;-1.00;1.00
2605;DHT22;1312;50.298;8.520;2024-01-16T02:40:11;-0.90;1.00
2605;DHT22;1312;50.298;8.520;2024-01-16T02:42:40;-1.00;1.00
2605;DHT22;1312;50.298;8.520;2024-01-16T02:45:09;-1.00;1.00
2605;DHT22;1312;50.298;8.520;2024-01-16T02:47:37;-1.00;1.00
2605;DHT22;1312;50.298;8.520;2024-01-16T02:50:06;-1.10;1.00
2605;DHT22;1312;50.298;8.520;2024-01-16T02:52:36;-1.20;99.90
2605;DHT22;1312;50.298;8.520;2024-01-16T02:55:05;-1.10;26.70
2605;DHT22;1312;50.298;8.520;2024-01-16T02:57:33;-1.10;33.00
2605;DHT22;1312;50.298;8.520;2024-01-16T03:00:03;-1.10;34.80
2605;DHT22;1312;50.298;8.520;2024-01-16T03:02:31;-1.10;47.20
2605;DHT22;1312;50.298;8.520;2024-01-16T03:04:59;-1.00;1.00
2605;DHT22;1312;50.298;8.520;2024-01-16T03:07:27;-1.00;1.00
2605;DHT22;1312;50.298;8.520;2024-01-16T03:09:55;-1.00;1.00
2605;DHT22;1312;50.298;8.520;2024-01-16T03:12:23;-0.90;1.00
2605;DHT22;1312;50.298;8.520;2024-01-16T03:14:50;-0.90;1.00
2605;DHT22;1312;50.298;8.520;2024-01-16T03:17:21;-0.90;1.00
2605;DHT22;1312;50.298;8.520;2024-01-16T03:19:49;-0.90;99.90
2605;DHT22;1312;50.298;8.520;2024-01-16T03:22:17;-0.80;99.90
2605;DHT22;1312;50.298;8.520;2024-01-16T03:24:45;-0.90;99.90
2605;DHT22;1312;50.298;8.520;2024-01-16T03:27:13;-0.80;1.00
2605;DHT22;1312;50.298;8.520;2024-01-16T03:29:41;-0.80;99.90
2605;DHT22;1312;50.298;8.520;2024-01-16T03:32:09;-0.80;99.90
2605;DHT22;1312;50.298;8.520;2024-01-16T03:34:38;-0.80;99.90
2605;DHT22;1312;50.298;8.520;2024-01-16T03:37:07;-0.80;99.90
2605;DHT22;1312;50.298;8.520;2024-01-16T03:39:35;-0.80;99.90
2605;DHT22;1312;50.298;8.520;2024-01-16T03:42:03;-0.80;99.90
2605;DHT22;1312;50.298;8.520;2024-01-16T03:44:31;-0.80;99.90
2605;DHT22;1312;50.298;8.520;2024-01-16T03:46:59;-0.80;99.90
2605;DHT22;1312;50.298;8.520;2024-01-16T03:49:27;-0.80;99.90
2605;DHT22;1312;50.298;8.520;2024-01-16T03:51:56;-0.80;99.90
2605;DHT22;1312;50.298;8.520;2024-01-16T03:54:24;-0.90;1.00
2605;DHT22;1312;50.298;8.520;2024-01-16T03:56:53;-0.90;99.90
2605;DHT22;1312;50.298;8.520;2024-01-16T03:59:22;-0.90;99.90
2605;DHT22;1312;50.298;8.520;2024-01-16T04:01:50;-0.90;99.90
2605;DHT22;1312;50.298;8.520;2024-01-16T04:04:19;-0.90;99.90
2605;DHT22;1312;50.298;8.520;2024-01-16T04:06:47;-0.90;99.90
2605;DHT22;1312;50.298;8.520;2024-01-16T04:09:16;-1.00;99.90
2605;DHT22;1312;50.298;8.520;2024-01-16T04:11:44;-0.90;99.90
2605;DHT22;1312;50.298;8.520;2024-01-16T04:14:14;-0.80;99.90
2605;DHT22;1312;50.298;8.520;2024-01-16T04:16:42;-0.90;99.90
2605;DHT22;1312;50.298;8.520;2024-01-16T04:19:09;-0.90;99.90
2605;DHT22;1312;50.298;8.520;2024-01-16T04:21:37;-0.90;99.90
2605;DHT22;1312;50.298;8.520;2024-01-16T04:24:08;-0.90;99.90
2605;DHT22;1312;50.298;8.520;2024-01-16T04:26:38;-1.00;99.90
2605;DHT22;1312;50.298;8.520;2024-01-16T04:29:06;-1.10;99.90
2605;DHT22;1312;50.298;8.520;2024-01-16T04:31:39;-1.00;99.90
2605;DHT22;1312;50.298;8.520;2024-01-16T04:34:07;-1.00;99.90
2605;DHT22;1312;50.298;8.520;2024-01-16T04:36:36;-1.00;99.90
2605;DHT22;1312;50.298;8.520;2024-01-16T04:39:03;-0.90;99.90
2605;DHT22;1312;50.298;8.520;2024-01-16T04:41:31;-0.90;99.90
2605;DHT22;1312;50.298;8.520;2024-01-16T04:44:01;-1.00;99.90
2605;DHT22;1312;50.298;8.520;2024-01-16T04:46:29;-1.00;99.90
2605;DHT22;1312;50.298;8.520;2024-01-16T04:48:57;-1.00;1.00
2605;DHT22;1312;50.298;8.520;2024-01-16T04:51:25;-1.10;1.00
2605;DHT22;1312;50.298;8.520;2024-01-16T04:53:53;-1.10;1.00
2605;DHT22;1312;50.298;8.520;2024-01-16T04:56:21;-1.20;1.00
2605;DHT22;1312;50.298;8.520;2024-01-16T04:58:49;-1.10;1.00
2605;DHT22;1312;50.298;8.520;2024-01-16T05:01:18;-1.10;1.00
2605;DHT22;1312;50.298;8.520;2024-01-16T05:03:46;-1.10;1.00
2605;DHT22;1312;50.298;8.520;2024-01-16T05:06:14;-1.20;99.90
2605;DHT22;1312;50.298;8.520;2024-01-16T05:08:43;-1.30;1.00
2605;DHT22;1312;50.298;8.520;2024-01-16T05:11:11;-1.30;1.00
2605;DHT22;1312;50.298;8.520;2024-01-16T05:13:39;-1.30;46.70
2605;DHT22;1312;50.298;8.520;2024-01-16T05:16:07;-1.30;1.00
2605;DHT22;1312;50.298;8.520;2024-01-16T05:18:36;-1.30;99.90
2605;DHT22;1312;50.298;8.520;2024-01-16T05:21:04;-1.30;99.90
2605;DHT22;1312;50.298;8.520;2024-01-16T05:23:33;-1.30;92.60
2605;DHT22;1312;50.298;8.520;2024-01-16T05:26:01;-1.20;1.00
2605;DHT22;1312;50.298;8.520;2024-01-16T05:28:29;-1.20;1.00
2605;DHT22;1312;50.298;8.520;2024-01-16T05:30:57;-1.20;1.00
2605;DHT22;1312;50.298;8.520;2024-01-16T05:33:25;-1.20;1.00
2605;DHT22;1312;50.298;8.520;2024-01-16T05:35:57;-1.20;1.00
2605;DHT22;1312;50.298;8.520;2024-01-16T05:38:25;-1.10;1.00
2605;DHT22;1312;50.298;8.520;2024-01-16T05:40:53;-1.20;1.00
2605;DHT22;1312;50.298;8.520;2024-01-16T05:43:21;-1.10;99.90
2605;DHT22;1312;50.298;8.520;2024-01-16T05:45:49;-1.10;99.90
2605;DHT22;1312;50.298;8.520;2024-01-16T05:48:18;-1.20;99.90
2605;DHT22;1312;50.298;8.520;2024-01-16T05:50:47;-1.20;99.90
2605;DHT22;1312;50.298;8.520;2024-01-16T05:53:16;-1.30;99.90
2605;DHT22;1312;50.298;8.520;2024-01-16T05:55:44;-1.10;99.90
2605;DHT22;1312;50.298;8.520;2024-01-16T05:58:12;-1.20;99.90
2605;DHT22;1312;50.298;8.520;2024-01-16T06:00:41;-1.30;99.90
2605;DHT22;1312;50.298;8.520;2024-01-16T06:03:09;-1.20;99.90
2605;DHT22;1312;50.298;8.520;2024-01-16T06:05:36;-1.30;99.90
2605;DHT22;1312;50.298;8.520;2024-01-16T06:08:06;-1.20;99.90
2605;DHT22;1312;50.298;8.520;2024-01-16T06:10:35;-1.30;99.90
2605;DHT22;1312;50.298;8.520;2024-01-16T06:13:03;-1.20;99.90
2605;DHT22;1312;50.298;8.520;2024-01-16T06:15:31;-1.20;99.90
2605;DHT22;1312;50.298;8.520;2024-01-16T06:17:59;-1.20;99.90
2605;DHT22;1312;50.298;8.520;2024-01-16T06:20:28;-1.30;99.90
2605;DHT22;1312;50.298;8.520;2024-01-16T06:22:57;-1.40;99.90
2605;DHT22;1312;50.298;8.520;2024-01-16T06:25:25;-1.40;99.90
2605;DHT22;1312;50.298;8.520;2024-01-16T06:27:54;-1.40;99.90
2605;DHT22;1312;50.298;8.520;2024-01-16T06:30:22;-1.50;99.90
2605;DHT22;1312;50.298;8.520;2024-01-16T06:32:50;-1.50;99.90
2605;DHT22;1312;50.298;8.520;2024-01-16T06:35:19;-1.50;99.90
2605;DHT22;1312;50.298;8.520;2024-01-16T06:37:47;-1.50;99.90
2605;DHT22;1312;50.298;8.520;2024-01-16T06:40:15;-1.60;99.90
2605;DHT22;1312;50.298;8.520;2024-01-16T06:42:42;-1.60;99.90
2605;DHT22;1312;50.298;8.520;2024-01-16T06:45:12;-1.70;99.90
2605;DHT22;1312;50.298;8.520;2024-01-16T06:47:42;-1.70;99.90
2605;DHT22;1312;50.298;8.520;2024-01-16T06:50:10;-1.70;99.90
2605;DHT22;1312;50.298;8.520;2024-01-16T06:52:38;-1.70;99.90
2605;DHT22;1312;50.298;8.520;2024-01-16T06:55:06;-1.60;99.90
2605;DHT22;1312;50.298;8.520;2024-01-16T06:57:34;-1.70;99.90
2605;DHT22;1312;50.298;8.520;2024-01-16T07:00:03;-1.70;99.90
2605;DHT22;1312;50.298;8.520;2024-01-16T07:02:35;-1.80;99.90
2605;DHT22;1312;50.298;8.520;2024-01-16T07:05:04;-1.80;99.90
2605;DHT22;1312;50.298;8.520;2024-01-16T07:07:32;-1.80;99.90
2605;DHT22;1312;50.298;8.520;2024-01-16T07:10:00;-1.80;99.90
2605;DHT22;1312;50.298;8.520;2024-01-16T07:12:28;-1.90;99.90
2605;DHT22;1312;50.298;8.520;2024-01-16T07:14:56;-1.90;99.90
2605;DHT22;1312;50.298;8.520;2024-01-16T07:17:24;-1.90;99.90
2605;DHT22;1312;50.298;8.520;2024-01-16T07:19:53;-1.80;99.90
2605;DHT22;1312;50.298;8.520;2024-01-16T07:22:21;-1.90;99.90
2605;DHT22;1312;50.298;8.520;2024-01-16T07:24:49;-1.90;99.90
2605;DHT22;1312;50.298;8.520;2024-01-16T07:27:17;-1.80;99.90
2605;DHT22;1312;50.298;8.520;2024-01-16T07:29:45;-1.80;99.90
2605;DHT22;1312;50.298;8.520;2024-01-16T07:32:37;-1.80;99.90
2605;DHT22;1312;50.298;8.520;2024-01-16T07:35:07;-1.80;99.90
2605;DHT22;1312;50.298;8.520;2024-01-16T07:37:35;-1.80;99.90
2605;DHT22;1312;50.298;8.520;2024-01-16T07:40:04;-1.70;99.90
2605;DHT22;1312;50.298;8.520;2024-01-16T07:42:33;-1.70;99.90
2605;DHT22;1312;50.298;8.520;2024-01-16T07:45:02;-1.70;99.90
2605;DHT22;1312;50.298;8.520;2024-01-16T07:47:31;-1.60;99.90
2605;DHT22;1312;50.298;8.520;2024-01-16T07:50:00;-1.70;99.90
2605;DHT22;1312;50.298;8.520;2024-01-16T07:52:33;-1.70;99.90
2605;DHT22;1312;50.298;8.520;2024-01-16T07:55:01;-1.70;99.90
2605;DHT22;1312;50.298;8.520;2024-01-16T07:57:30;-1.70;99.90
2605;DHT22;1312;50.298;8.520;2024-01-16T07:59:58;-1.70;99.90
2605;DHT22;1312;50.298;8.520;2024-01-16T08:02:30;-1.70;99.90
2605;DHT22;1312;50.298;8.520;2024-01-16T08:04:59;-1.60;99.90
2605;DHT22;1312;50.298;8.520;2024-01-16T08:07:27;-1.70;99.90
2605;DHT22;1312;50.298;8.520;2024-01-16T08:09:56;-1.70;99.90
2605;DHT22;1312;50.298;8.520;2024-01-16T08:12:24;-1.60;99.70
2605;DHT22;1312;50.298;8.520;2024-01-16T08:14:52;-1.60;99.90
2605;DHT22;1312;50.298;8.520;2024-01-16T08:17:20;-1.60;99.90
2605;DHT22;1312;50.298;8.520;2024-01-16T08:19:48;-1.60;57.40
2605;DHT22;1312;50.298;8.520;2024-01-16T08:22:17;-1.50;88.50
2605;DHT22;1312;50.298;8.520;2024-01-16T08:24:44;-1.50;77.90
2605;DHT22;1312;50.298;8.520;2024-01-16T08:27:14;-1.50;1.00
2605;DHT22;1312;50.298;8.520;2024-01-16T08:29:43;-1.40;47.50
2605;DHT22;1312;50.298;8.520;2024-01-16T08:32:11;-1.30;1.00
2605;DHT22;1312;50.298;8.520;2024-01-16T08:34:39;-1.40;1.00
2605;DHT22;1312;50.298;8.520;2024-01-16T08:37:07;-1.30;1.00
2605;DHT22;1312;50.298;8.520;2024-01-16T08:39:35;-1.30;1.00
2605;DHT22;1312;50.298;8.520;2024-01-16T08:42:03;-1.30;1.00
2605;DHT22;1312;50.298;8.520;2024-01-16T08:44:33;-1.20;1.00
2605;DHT22;1312;50.298;8.520;2024-01-16T08:47:01;-1.20;1.00
2605;DHT22;1312;50.298;8.520;2024-01-16T08:49:31;-1.10;1.00
2605;DHT22;1312;50.298;8.520;2024-01-16T08:51:59;-1.10;1.00
2605;DHT22;1312;50.298;8.520;2024-01-16T08:54:27;-1.10;1.00
2605;DHT22;1312;50.298;8.520;2024-01-16T08:56:55;-1.10;1.00
2605;DHT22;1312;50.298;8.520;2024-01-16T08:59:23;-1.10;1.00
2605;DHT22;1312;50.298;8.520;2024-01-16T09:01:52;-1.10;1.00
2605;DHT22;1312;50.298;8.520;2024-01-16T09:04:20;-1.10;1.00
2605;DHT22;1312;50.298;8.520;2024-01-16T09:06:51;-0.90;1.00
2605;DHT22;1312;50.298;8.520;2024-01-16T09:09:20;-0.80;1.00
2605;DHT22;1312;50.298;8.520;2024-01-16T09:11:48;-0.60;1.00
2605;DHT22;1312;50.298;8.520;2024-01-16T09:14:16;-0.60;1.00
2605;DHT22;1312;50.298;8.520;2024-01-16T09:16:44;-0.20;1.00
2605;DHT22;1312;50.298;8.520;2024-01-16T09:19:13;0.30;99.90
2605;DHT22;1312;50.298;8.520;2024-01-16T09:21:41;0.40;99.90
2605;DHT22;1312;50.298;8.520;2024-01-16T09:24:09;-0.10;99.90
2605;DHT22;1312;50.298;8.520;2024-01-16T09:26:39;-0.20;99.90
2605;DHT22;1312;50.298;8.520;2024-01-16T09:29:08;-0.10;1.00
2605;DHT22;1312;50.298;8.520;2024-01-16T09:31:37;-0.40;1.00
2605;DHT22;1312;50.298;8.520;2024-01-16T09:34:05;-0.20;1.00
2605;DHT22;1312;50.298;8.520;2024-01-16T09:36:37;0.10;1.00
2605;DHT22;1312;50.298;8.520;2024-01-16T09:39:06;0.10;99.90
2605;DHT22;1312;50.298;8.520;2024-01-16T09:41:35;0.00;99.90
2605;DHT22;1312;50.298;8.520;2024-01-16T09:44:03;-0.10;99.90
2605;DHT22;1312;50.298;8.520;2024-01-16T09:46:31;0.00;99.90
2605;DHT22;1312;50.298;8.520;2024-01-16T09:49:00;0.10;99.90
2605;DHT22;1312;50.298;8.520;2024-01-16T09:51:28;0.60;99.90
2605;DHT22;1312;50.298;8.520;2024-01-16T09:53:58;0.70;99.90
2605;DHT22;1312;50.298;8.520;2024-01-16T09:56:28;0.60;99.90
2605;DHT22;1312;50.298;8.520;2024-01-16T09:59:01;0.70;99.90
2605;DHT22;1312;50.298;8.520;2024-01-16T10:01:31;1.00;99.90
2605;DHT22;1312;50.298;8.520;2024-01-16T10:04:00;0.80;99.90
2605;DHT22;1312;50.298;8.520;2024-01-16T10:06:30;0.50;99.90
2605;DHT22;1312;50.298;8.520;2024-01-16T10:09:01;0.90;99.90
2605;DHT22;1312;50.298;8.520;2024-01-16T10:11:29;0.50;99.90
2605;DHT22;1312;50.298;8.520;2024-01-16T10:13:58;0.60;99.90
2605;DHT22;1312;50.298;8.520;2024-01-16T10:16:56;0.60;99.90
2605;DHT22;1312;50.298;8.520;2024-01-16T10:19:25;0.50;99.90
2605;DHT22;1312;50.298;8.520;2024-01-16T10:22:11;0.60;99.90
2605;DHT22;1312;50.298;8.520;2024-01-16T10:24:40;0.40;99.90
2605;DHT22;1312;50.298;8.520;2024-01-16T10:27:08;0.50;99.90
2605;DHT22;1312;50.298;8.520;2024-01-16T10:29:36;0.50;99.90
2605;DHT22;1312;50.298;8.520;2024-01-16T10:32:27;0.60;99.90
2605;DHT22;1312;50.298;8.520;2024-01-16T10:35:06;0.50;99.90
2605;DHT22;1312;50.298;8.520;2024-01-16T10:37:42;0.80;99.90
2605;DHT22;1312;50.298;8.520;2024-01-16T10:40:15;0.80;99.90
2605;DHT22;1312;50.298;8.520;2024-01-16T10:42:42;0.80;99.90
2605;DHT22;1312;50.298;8.520;2024-01-16T10:45:16;1.00;99.90
2605;DHT22;1312;50.298;8.520;2024-01-16T10:47:46;1.00;99.90
2605;DHT22;1312;50.298;8.520;2024-01-16T10:50:14;1.10;99.90
2605;DHT22;1312;50.298;8.520;2024-01-16T10:52:47;0.90;99.90
2605;DHT22;1312;50.298;8.520;2024-01-16T10:55:20;1.00;99.90
2605;DHT22;1312;50.298;8.520;2024-01-16T10:57:50;1.30;99.90
2605;DHT22;1312;50.298;8.520;2024-01-16T11:00:19;1.40;99.90
2605;DHT22;1312;50.298;8.520;2024-01-16T11:02:51;1.40;99.90
2605;DHT22;1312;50.298;8.520;2024-01-16T11:05:21;1.40;99.90
2605;DHT22;1312;50.298;8.520;2024-01-16T11:07:54;1.20;99.90
2605;DHT22;1312;50.298;8.520;2024-01-16T11:10:24;1.50;99.90
2605;DHT22;1312;50.298;8.520;2024-01-16T11:12:54;1.20;99.90
2605;DHT22;1312;50.298;8.520;2024-01-16T11:15:23;1.50;99.90
2605;DHT22;1312;50.298;8.520;2024-01-16T11:17:53;1.50;99.90
2605;DHT22;1312;50.298;8.520;2024-01-16T11:20:22;1.60;99.90
2605;DHT22;1312;50.298;8.520;2024-01-16T11:23:11;1.30;99.90
2605;DHT22;1312;50.298;8.520;2024-01-16T11:25:41;1.20;99.90
2605;DHT22;1312;50.298;8.520;2024-01-16T11:28:10;1.50;99.90
2605;DHT22;1312;50.298;8.520;2024-01-16T11:30:40;1.60;99.90
2605;DHT22;1312;50.298;8.520;2024-01-16T11:33:42;2.00;99.90
2605;DHT22;1312;50.298;8.520;2024-01-16T11:36:45;2.40;99.90
2605;DHT22;1312;50.298;8.520;2024-01-16T11:39:17;2.80;99.90
2605;DHT22;1312;50.298;8.520;2024-01-16T11:41:54;3.30;99.90
2605;DHT22;1312;50.298;8.520;2024-01-16T11:44:43;3.50;99.90
2605;DHT22;1312;50.298;8.520;2024-01-16T11:47:17;3.00;99.90
2605;DHT22;1312;50.298;8.520;2024-01-16T11:49:47;3.10;99.90
2605;DHT22;1312;50.298;8.520;2024-01-16T11:52:15;3.10;99.90
2605;DHT22;1312;50.298;8.520;2024-01-16T11:55:25;3.20;79.10
2605;DHT22;1312;50.298;8.520;2024-01-16T11:58:13;2.90;99.90
2605;DHT22;1312;50.298;8.520;2024-01-16T12:00:46;2.70;95.30
2605;DHT22;1312;50.298;8.520;2024-01-16T12:03:19;2.50;99.90
2605;DHT22;1312;50.298;8.520;2024-01-16T12:06:01;2.30;99.90
2605;DHT22;1312;50.298;8.520;2024-01-16T12:08:30;2.70;72.10
2605;DHT22;1312;50.298;8.520;2024-01-16T12:10:58;2.80;99.90
2605;DHT22;1312;50.298;8.520;2024-01-16T12:13:28;2.90;57.50
2605;DHT22;1312;50.298;8.520;2024-01-16T12:16:00;3.60;70.10
2605;DHT22;1312;50.298;8.520;2024-01-16T12:18:28;4.00;47.90
2605;DHT22;1312;50.298;8.520;2024-01-16T12:21:10;4.60;45.70
2605;DHT22;1312;50.298;8.520;2024-01-16T12:23:40;4.50;37.00
2605;DHT22;1312;50.298;8.520;2024-01-16T12:26:22;4.30;39.10
2605;DHT22;1312;50.298;8.520;2024-01-16T12:28:52;4.80;33.60
2605;DHT22;1312;50.298;8.520;2024-01-16T12:31:26;5.00;34.10
2605;DHT22;1312;50.298;8.520;2024-01-16T12:34:04;4.70;32.10
2605;DHT22;1312;50.298;8.520;2024-01-16T12:36:35;5.10;35.20
2605;DHT22;1312;50.298;8.520;2024-01-16T12:39:04;4.90;30.10
2605;DHT22;1312;50.298;8.520;2024-01-16T12:41:34;5.40;33.80
2605;DHT22;1312;50.298;8.520;2024-01-16T12:44:10;5.00;37.90
2605;DHT22;1312;50.298;8.520;2024-01-16T12:46:43;5.20;34.90
2605;DHT22;1312;50.298;8.520;2024-01-16T12:49:12;5.70;44.40
2605;DHT22;1312;50.298;8.520;2024-01-16T12:51:40;5.40;34.70
2605;DHT22;1312;50.298;8.520;2024-01-16T12:54:13;5.60;32.20
2605;DHT22;1312;50.298;8.520;2024-01-16T12:56:42;5.30;30.00
2605;DHT22;1312;50.298;8.520;2024-01-16T12:59:12;5.40;28.90
2605;DHT22;1312;50.298;8.520;2024-01-16T13:01:40;5.10;28.50
2605;DHT22;1312;50.298;8.520;2024-01-16T13:04:11;5.40;32.20
2605;DHT22;1312;50.298;8.520;2024-01-16T13:12:19;6.10;32.70
2605;DHT22;1312;50.298;8.520;2024-01-16T13:14:49;6.50;33.40
2605;DHT22;1312;50.298;8.520;2024-01-16T13:17:16;6.90;40.00
2605;DHT22;1312;50.298;8.520;2024-01-16T13:19:48;7.20;36.20
2605;DHT22;1312;50.298;8.520;2024-01-16T13:22:15;6.60;31.80
2605;DHT22;1312;50.298;8.520;2024-01-16T13:24:45;6.40;29.60
2605;DHT22;1312;50.298;8.520;2024-01-16T13:27:27;6.80;33.30
2605;DHT22;1312;50.298;8.520;2024-01-16T13:29:57;7.10;42.30
2605;DHT22;1312;50.298;8.520;2024-01-16T13:32:26;7.50;35.80
2605;DHT22;1312;50.298;8.520;2024-01-16T13:34:55;7.10;30.30
2605;DHT22;1312;50.298;8.520;2024-01-16T13:37:22;7.00;31.60
2605;DHT22;1312;50.298;8.520;2024-01-16T13:39:50;6.70;28.40
2605;DHT22;1312;50.298;8.520;2024-01-16T13:42:18;6.60;28.00
2605;DHT22;1312;50.298;8.520;2024-01-16T13:44:47;5.90;24.00
2605;DHT22;1312;50.298;8.520;2024-01-16T13:47:16;5.80;22.80
2605;DHT22;1312;50.298;8.520;2024-01-16T13:49:49;4.90;19.40
2605;DHT22;1312;50.298;8.520;2024-01-16T13:52:17;4.50;16.90
2605;DHT22;1312;50.298;8.520;2024-01-16T13:54:48;4.20;16.20
2605;DHT22;1312;50.298;8.520;2024-01-16T13:57:16;4.20;15.20
2605;DHT22;1312;50.298;8.520;2024-01-16T13:59:44;4.00;15.20
2605;DHT22;1312;50.298;8.520;2024-01-16T14:02:11;4.10;15.40
2605;DHT22;1312;50.298;8.520;2024-01-16T14:04:41;4.00;15.50
2605;DHT22;1312;50.298;8.520;2024-01-16T14:07:09;3.70;13.80
2605;DHT22;1312;50.298;8.520;2024-01-16T14:09:40;3.90;14.70
2605;DHT22;1312;50.298;8.520;2024-01-16T14:12:11;3.50;13.00
2605;DHT22;1312;50.298;8.520;2024-01-16T14:14:40;3.20;11.50
2605;DHT22;1312;50.298;8.520;2024-01-16T14:17:09;3.10;11.70
2605;DHT22;1312;50.298;8.520;2024-01-16T14:19:37;2.80;10.50
2605;DHT22;1312;50.298;8.520;2024-01-16T14:22:07;2.60;9.30
2605;DHT22;1312;50.298;8.520;2024-01-16T14:24:35;2.50;9.60
2605;DHT22;1312;50.298;8.520;2024-01-16T14:27:05;2.40;9.30
2605;DHT22;1312;50.298;8.520;2024-01-16T14:29:33;2.10;9.50
2605;DHT22;1312;50.298;8.520;2024-01-16T14:32:03;2.10;10.90
2605;DHT22;1312;50.298;8.520;2024-01-16T14:34:32;2.00;10.90
2605;DHT22;1312;50.298;8.520;2024-01-16T14:37:00;1.90;12.00
2605;DHT22;1312;50.298;8.520;2024-01-16T14:39:29;1.90;15.40
2605;DHT22;1312;50.298;8.520;2024-01-16T14:41:58;1.70;11.70
2605;DHT22;1312;50.298;8.520;2024-01-16T14:44:26;1.30;15.90
2605;DHT22;1312;50.298;8.520;2024-01-16T14:46:54;1.20;20.40
2605;DHT22;1312;50.298;8.520;2024-01-16T14:49:22;1.20;28.30
2605;DHT22;1312;50.298;8.520;2024-01-16T14:51:50;1.20;31.80
2605;DHT22;1312;50.298;8.520;2024-01-16T14:54:18;1.20;38.00
2605;DHT22;1312;50.298;8.520;2024-01-16T14:56:47;1.10;27.10
2605;DHT22;1312;50.298;8.520;2024-01-16T14:59:16;1.10;50.60
2605;DHT22;1312;50.298;8.520;2024-01-16T15:01:45;1.20;42.20
2605;DHT22;1312;50.298;8.520;2024-01-16T15:04:13;1.10;47.40
2605;DHT22;1312;50.298;8.520;2024-01-16T15:06:41;1.10;48.80
2605;DHT22;1312;50.298;8.520;2024-01-16T15:09:09;0.90;75.30
2605;DHT22;1312;50.298;8.520;2024-01-16T15:11:39;1.00;58.30
2605;DHT22;1312;50.298;8.520;2024-01-16T15:14:11;0.80;85.70
2605;DHT22;1312;50.298;8.520;2024-01-16T15:16:39;0.60;89.80
2605;DHT22;1312;50.298;8.520;2024-01-16T15:19:07;0.50;98.10
2605;DHT22;1312;50.298;8.520;2024-01-16T15:21:35;0.40;99.90
2605;DHT22;1312;50.298;8.520;2024-01-16T15:24:06;0.50;99.90
2605;DHT22;1312;50.298;8.520;2024-01-16T15:26:34;0.30;99.90
2605;DHT22;1312;50.298;8.520;2024-01-16T15:29:03;0.00;99.90
2605;DHT22;1312;50.298;8.520;2024-01-16T15:31:37;-0.20;99.90
2605;DHT22;1312;50.298;8.520;2024-01-16T15:34:05;-0.20;99.90
2605;DHT22;1312;50.298;8.520;2024-01-16T15:36:33;-0.40;99.90
2605;DHT22;1312;50.298;8.520;2024-01-16T15:39:01;-0.40;99.90
2605;DHT22;1312;50.298;8.520;2024-01-16T15:41:30;-0.50;99.90
2605;DHT22;1312;50.298;8.520;2024-01-16T15:43:58;-0.50;99.90
2605;DHT22;1312;50.298;8.520;2024-01-16T15:46:59;-0.50;99.90
2605;DHT22;1312;50.298;8.520;2024-01-16T15:49:28;-0.60;99.90
2605;DHT22;1312;50.298;8.520;2024-01-16T15:51:58;-0.60;99.90
2605;DHT22;1312;50.298;8.520;2024-01-16T15:54:26;-0.60;99.90
2605;DHT22;1312;50.298;8.520;2024-01-16T15:56:54;-0.60;99.90
2605;DHT22;1312;50.298;8.520;2024-01-16T15:59:23;-0.50;99.90
2605;DHT22;1312;50.298;8.520;2024-01-16T16:01:50;-0.60;99.90
2605;DHT22;1312;50.298;8.520;2024-01-16T16:04:20;-0.70;99.90
2605;DHT22;1312;50.298;8.520;2024-01-16T16:06:48;-0.90;99.90
2605;DHT22;1312;50.298;8.520;2024-01-16T16:09:16;-0.90;99.90
2605;DHT22;1312;50.298;8.520;2024-01-16T16:11:44;-1.00;99.90
2605;DHT22;1312;50.298;8.520;2024-01-16T16:14:14;-1.10;99.90
2605;DHT22;1312;50.298;8.520;2024-01-16T16:16:42;-1.40;99.90
2605;DHT22;1312;50.298;8.520;2024-01-16T16:19:11;-1.60;99.90
2605;DHT22;1312;50.298;8.520;2024-01-16T16:21:40;-1.80;99.90
2605;DHT22;1312;50.298;8.520;2024-01-16T16:24:08;-1.90;99.90
2605;DHT22;1312;50.298;8.520;2024-01-16T16:26:39;-2.00;99.90
2605;DHT22;1312;50.298;8.520;2024-01-16T16:29:10;-2.10;99.90
2605;DHT22;1312;50.298;8.520;2024-01-16T16:31:40;-2.20;99.90
2605;DHT22;1312;50.298;8.520;2024-01-16T16:34:09;-2.20;99.90